sensor_id;sensor_type;location;lat;lon;timestamp;temperature;humidity
59067;DHT22;44854;50.838;4.438;2023-02-28T05:24:16;1.20;99.90
59067;DHT22;44854;50.838;4.438;2023-02-28T05:26:48;1.20;99.90
59067;DHT22;44854;50.838;4.438;2023-02-28T05:29:14;1.10;99.90
59067;DHT22;44854;50.838;4.438;2023-02-28T05:31:39;1.20;99.90
59067;DHT22;44854;50.838;4.438;2023-02-28T05:34:05;1.20;99.90
59067;DHT22;44854;50.838;4.438;2023-02-28T05:36:30;1.30;99.90
59067;DHT22;44854;50.838;4.438;2023-02-28T05:38:56;1.30;99.90
59067;DHT22;44854;50.838;4.438;2023-02-28T05:41:21;1.30;99.90
59067;DHT22;44854;50.838;4.438;2023-02-28T05:43:47;1.30;99.90
59067;DHT22;44854;50.838;4.438;2023-02-28T05:46:13;1.20;99.90
59067;DHT22;44854;50.838;4.438;2023-02-28T05:48:39;1.30;99.90
59067;DHT22;44854;50.838;4.438;2023-02-28T05:51:05;1.30;99.90
59067;DHT22;44854;50.838;4.438;2023-02-28T05:53:32;1.30;99.90
59067;DHT22;44854;50.838;4.438;2023-02-28T05:55:57;1.40;99.90
59067;DHT22;44854;50.838;4.438;2023-02-28T05:58:23;1.40;99.90
59067;DHT22;44854;50.838;4.438;2023-02-28T06:00:50;1.50;99.90
59067;DHT22;44854;50.838;4.438;2023-02-28T06:03:16;1.60;99.90
59067;DHT22;44854;50.838;4.438;2023-02-28T06:05:41;1.70;99.90
59067;DHT22;44854;50.838;4.438;2023-02-28T06:08:07;1.60;99.90
59067;DHT22;44854;50.838;4.438;2023-02-28T06:10:33;1.70;99.90
59067;DHT22;44854;50.838;4.438;2023-02-28T06:13:01;1.70;99.90
59067;DHT22;44854;50.838;4.438;2023-02-28T06:15:28;1.80;99.90
59067;DHT22;44854;50.838;4.438;2023-02-28T06:17:53;1.80;99.90
59067;DHT22;44854;50.838;4.438;2023-02-28T06:20:19;1.80;99.90
59067;DHT22;44854;50.838;4.438;2023-02-28T06:22:44;1.80;99.90
59067;DHT22;44854;50.838;4.438;2023-02-28T06:25:10;1.90;99.90
59067;DHT22;44854;50.838;4.438;2023-02-28T06:27:36;1.90;99.90
59067;DHT22;44854;50.838;4.438;2023-02-28T06:30:01;1.90;99.90
59067;DHT22;44854;50.838;4.438;2023-02-28T06:32:27;1.90;99.90
59067;DHT22;44854;50.838;4.438;2023-02-28T06:34:52;2.00;99.90
59067;DHT22;44854;50.838;4.438;2023-02-28T06:37:18;2.00;99.90
59067;DHT22;44854;50.838;4.438;2023-02-28T06:39:44;2.00;99.90
59067;DHT22;44854;50.838;4.438;2023-02-28T06:42:09;2.00;99.90
59067;DHT22;44854;50.838;4.438;2023-02-28T06:44:35;2.00;99.90
59067;DHT22;44854;50.838;4.438;2023-02-28T06:47:01;1.90;99.90
59067;DHT22;44854;50.838;4.438;2023-02-28T06:49:29;2.00;99.90
59067;DHT22;44854;50.838;4.438;2023-02-28T06:51:54;2.00;99.90
59067;DHT22;44854;50.838;4.438;2023-02-28T06:54:20;1.90;99.90
59067;DHT22;44854;50.838;4.438;2023-02-28T06:56:46;2.00;99.90
59067;DHT22;44854;50.838;4.438;2023-02-28T06:59:12;2.00;99.90
59067;DHT22;44854;50.838;4.438;2023-02-28T07:01:38;1.90;99.90
59067;DHT22;44854;50.838;4.438;2023-02-28T07:04:04;1.90;99.90
59067;DHT22;44854;50.838;4.438;2023-02-28T07:06:30;2.10;99.90
59067;DHT22;44854;50.838;4.438;2023-02-28T07:08:56;2.10;99.90
59067;DHT22;44854;50.838;4.438;2023-02-28T07:11:22;2.20;99.90
59067;DHT22;44854;50.838;4.438;2023-02-28T07:13:51;2.30;99.90
59067;DHT22;44854;50.838;4.438;2023-02-28T07:16:17;2.30;99.90
59067;DHT22;44854;50.838;4.438;2023-02-28T07:18:43;2.00;99.90
59067;DHT22;44854;50.838;4.438;2023-02-28T07:21:09;2.10;99.90
59067;DHT22;44854;50.838;4.438;2023-02-28T07:23:35;2.30;99.90
59067;DHT22;44854;50.838;4.438;2023-02-28T07:26:03;2.30;99.90
59067;DHT22;44854;50.838;4.438;2023-02-28T07:28:29;2.40;99.90
59067;DHT22;44854;50.838;4.438;2023-02-28T07:30:54;2.40;99.90
59067;DHT22;44854;50.838;4.438;2023-02-28T07:33:20;2.40;99.90
59067;DHT22;44854;50.838;4.438;2023-02-28T07:35:45;2.50;99.90
59067;DHT22;44854;50.838;4.438;2023-02-28T07:38:11;2.50;99.90
59067;DHT22;44854;50.838;4.438;2023-02-28T07:40:39;2.60;99.90
59067;DHT22;44854;50.838;4.438;2023-02-28T07:43:04;2.50;99.90
59067;DHT22;44854;50.838;4.438;2023-02-28T07:45:30;2.50;99.90
59067;DHT22;44854;50.838;4.438;2023-02-28T07:47:57;2.60;99.90
59067;DHT22;44854;50.838;4.438;2023-02-28T07:50:23;2.60;99.90
59067;DHT22;44854;50.838;4.438;2023-02-28T07:52:49;2.60;99.90
59067;DHT22;44854;50.838;4.438;2023-02-28T07:55:14;2.70;99.90
59067;DHT22;44854;50.838;4.438;2023-02-28T07:57:42;2.80;99.90
59067;DHT22;44854;50.838;4.438;2023-02-28T08:00:09;2.90;99.90
59067;DHT22;44854;50.838;4.438;2023-02-28T08:02:35;3.00;99.90
59067;DHT22;44854;50.838;4.438;2023-02-28T08:05:01;3.00;99.90
59067;DHT22;44854;50.838;4.438;2023-02-28T08:07:26;2.90;99.90
59067;DHT22;44854;50.838;4.438;2023-02-28T08:09:52;2.80;99.90
59067;DHT22;44854;50.838;4.438;2023-02-28T08:12:18;2.80;99.90
59067;DHT22;44854;50.838;4.438;2023-02-28T08:14:43;2.80;99.90
59067;DHT22;44854;50.838;4.438;2023-02-28T08:17:09;3.00;99.90
59067;DHT22;44854;50.838;4.438;2023-02-28T08:19:34;3.10;99.90
59067;DHT22;44854;50.838;4.438;2023-02-28T08:22:00;3.10;99.90
59067;DHT22;44854;50.838;4.438;2023-02-28T08:24:26;3.10;99.90
59067;DHT22;44854;50.838;4.438;2023-02-28T08:26:51;3.20;99.90
59067;DHT22;44854;50.838;4.438;2023-02-28T08:29:17;3.20;99.90
59067;DHT22;44854;50.838;4.438;2023-02-28T08:31:42;3.30;99.90
59067;DHT22;44854;50.838;4.438;2023-02-28T08:34:09;3.40;99.90
59067;DHT22;44854;50.838;4.438;2023-02-28T08:36:34;3.40;99.90
59067;DHT22;44854;50.838;4.438;2023-02-28T08:39:00;3.30;99.90
59067;DHT22;44854;50.838;4.438;2023-02-28T08:41:26;3.30;99.90
59067;DHT22;44854;50.838;4.438;2023-02-28T08:43:52;3.40;99.90
59067;DHT22;44854;50.838;4.438;2023-02-28T08:46:19;3.40;99.90
59067;DHT22;44854;50.838;4.438;2023-02-28T08:48:44;3.50;99.90
59067;DHT22;44854;50.838;4.438;2023-02-28T08:51:12;3.60;99.90
59067;DHT22;44854;50.838;4.438;2023-02-28T08:53:38;3.80;99.90
59067;DHT22;44854;50.838;4.438;2023-02-28T08:56:05;3.80;99.90
59067;DHT22;44854;50.838;4.438;2023-02-28T08:58:31;3.80;99.90
59067;DHT22;44854;50.838;4.438;2023-02-28T09:00:57;3.70;99.90
59067;DHT22;44854;50.838;4.438;2023-02-28T09:03:22;3.80;99.90
59067;DHT22;44854;50.838;4.438;2023-02-28T09:05:58;3.90;99.90
59067;DHT22;44854;50.838;4.438;2023-02-28T09:08:24;4.10;99.90
59067;DHT22;44854;50.838;4.438;2023-02-28T09:10:50;4.30;99.90
59067;DHT22;44854;50.838;4.438;2023-02-28T09:13:16;4.30;99.90
59067;DHT22;44854;50.838;4.438;2023-02-28T09:15:42;4.40;99.90
59067;DHT22;44854;50.838;4.438;2023-02-28T09:18:07;4.50;99.90
59067;DHT22;44854;50.838;4.438;2023-02-28T09:20:33;4.40;99.90
59067;DHT22;44854;50.838;4.438;2023-02-28T09:22:59;4.20;99.90
59067;DHT22;44854;50.838;4.438;2023-02-28T09:25:24;4.40;99.90
59067;DHT22;44854;50.838;4.438;2023-02-28T09:27:50;4.30;99.90
59067;DHT22;44854;50.838;4.438;2023-02-28T09:30:15;4.40;99.90
59067;DHT22;44854;50.838;4.438;2023-02-28T09:32:41;4.40;99.90
59067;DHT22;44854;50.838;4.438;2023-02-28T09:35:07;4.40;99.90
59067;DHT22;44854;50.838;4.438;2023-02-28T09:37:38;4.50;99.90
59067;DHT22;44854;50.838;4.438;2023-02-28T09:40:04;4.60;99.90
59067;DHT22;44854;50.838;4.438;2023-02-28T09:42:31;4.60;99.90
59067;DHT22;44854;50.838;4.438;2023-02-28T09:44:57;4.60;99.90
59067;DHT22;44854;50.838;4.438;2023-02-28T09:47:27;4.60;99.90
59067;DHT22;44854;50.838;4.438;2023-02-28T09:49:55;4.70;99.90
59067;DHT22;44854;50.838;4.438;2023-02-28T09:52:24;4.70;99.90
59067;DHT22;44854;50.838;4.438;2023-02-28T09:54:52;4.70;99.90
59067;DHT22;44854;50.838;4.438;2023-02-28T09:57:35;4.80;99.90
59067;DHT22;44854;50.838;4.438;2023-02-28T10:05:15;5.10;99.90
59067;DHT22;44854;50.838;4.438;2023-02-28T10:18:47;5.00;98.80
59067;DHT22;44854;50.838;4.438;2023-02-28T10:21:17;5.00;98.00
59067;DHT22;44854;50.838;4.438;2023-02-28T10:23:45;5.00;97.60
59067;DHT22;44854;50.838;4.438;2023-02-28T10:26:13;5.20;96.80
59067;DHT22;44854;50.838;4.438;2023-02-28T10:28:41;5.10;96.00
59067;DHT22;44854;50.838;4.438;2023-02-28T10:31:08;4.90;95.90
59067;DHT22;44854;50.838;4.438;2023-02-28T10:33:35;5.20;95.70
59067;DHT22;44854;50.838;4.438;2023-02-28T10:36:01;5.10;94.50
59067;DHT22;44854;50.838;4.438;2023-02-28T10:38:28;5.30;95.10
59067;DHT22;44854;50.838;4.438;2023-02-28T10:41:10;5.40;94.80
59067;DHT22;44854;50.838;4.438;2023-02-28T10:43:37;5.40;94.80
59067;DHT22;44854;50.838;4.438;2023-02-28T10:48:38;5.70;93.00
59067;DHT22;44854;50.838;4.438;2023-02-28T10:51:10;5.80;92.40
59067;DHT22;44854;50.838;4.438;2023-02-28T10:53:52;5.50;92.40
59067;DHT22;44854;50.838;4.438;2023-02-28T10:56:19;5.50;93.00
59067;DHT22;44854;50.838;4.438;2023-02-28T11:01:20;5.90;93.20
59067;DHT22;44854;50.838;4.438;2023-02-28T11:03:46;6.00;93.20
59067;DHT22;44854;50.838;4.438;2023-02-28T11:06:19;6.30;92.70
59067;DHT22;44854;50.838;4.438;2023-02-28T11:08:50;6.20;92.40
59067;DHT22;44854;50.838;4.438;2023-02-28T11:11:17;6.10;92.50
59067;DHT22;44854;50.838;4.438;2023-02-28T11:13:43;5.90;92.70
59067;DHT22;44854;50.838;4.438;2023-02-28T11:16:10;6.10;92.60
59067;DHT22;44854;50.838;4.438;2023-02-28T11:18:38;6.20;92.30
59067;DHT22;44854;50.838;4.438;2023-02-28T11:21:05;6.40;91.20
59067;DHT22;44854;50.838;4.438;2023-02-28T11:23:32;6.40;91.00
59067;DHT22;44854;50.838;4.438;2023-02-28T11:26:00;6.40;91.10
59067;DHT22;44854;50.838;4.438;2023-02-28T11:30:59;6.20;90.90
59067;DHT22;44854;50.838;4.438;2023-02-28T11:33:29;6.40;91.50
59067;DHT22;44854;50.838;4.438;2023-02-28T11:35:57;6.50;91.20
59067;DHT22;44854;50.838;4.438;2023-02-28T11:38:24;6.50;91.00
59067;DHT22;44854;50.838;4.438;2023-02-28T11:43:40;6.30;91.30
59067;DHT22;44854;50.838;4.438;2023-02-28T11:46:16;6.30;91.20
59067;DHT22;44854;50.838;4.438;2023-02-28T11:51:21;6.00;91.70
59067;DHT22;44854;50.838;4.438;2023-02-28T12:06:30;6.20;91.30
59067;DHT22;44854;50.838;4.438;2023-02-28T12:16:38;6.70;89.50
59067;DHT22;44854;50.838;4.438;2023-02-28T12:19:20;6.60;89.00
59067;DHT22;44854;50.838;4.438;2023-02-28T12:26:49;6.80;87.70
59067;DHT22;44854;50.838;4.438;2023-02-28T12:29:33;6.80;88.00
59067;DHT22;44854;50.838;4.438;2023-02-28T12:32:20;6.70;87.80
59067;DHT22;44854;50.838;4.438;2023-02-28T12:40:13;6.90;87.00
59067;DHT22;44854;50.838;4.438;2023-02-28T12:42:44;7.00;86.70
59067;DHT22;44854;50.838;4.438;2023-02-28T12:45:13;7.00;85.50
59067;DHT22;44854;50.838;4.438;2023-02-28T12:47:42;7.00;85.80
59067;DHT22;44854;50.838;4.438;2023-02-28T12:50:09;7.00;85.40
59067;DHT22;44854;50.838;4.438;2023-02-28T13:00:04;7.00;84.90
59067;DHT22;44854;50.838;4.438;2023-02-28T13:10:14;6.90;83.90
59067;DHT22;44854;50.838;4.438;2023-02-28T13:12:51;6.80;85.30
59067;DHT22;44854;50.838;4.438;2023-02-28T13:15:27;6.80;85.50
59067;DHT22;44854;50.838;4.438;2023-02-28T13:18:00;6.70;85.70
59067;DHT22;44854;50.838;4.438;2023-02-28T13:22:52;6.70;84.30
59067;DHT22;44854;50.838;4.438;2023-02-28T13:27:59;6.80;83.50
59067;DHT22;44854;50.838;4.438;2023-02-28T13:38:44;7.10;82.30
59067;DHT22;44854;50.838;4.438;2023-02-28T13:44:15;7.50;80.70
59067;DHT22;44854;50.838;4.438;2023-02-28T13:51:51;7.10;81.00
59067;DHT22;44854;50.838;4.438;2023-02-28T14:02:11;7.40;81.50
59067;DHT22;44854;50.838;4.438;2023-02-28T14:04:58;7.30;81.60
59067;DHT22;44854;50.838;4.438;2023-02-28T14:07:26;7.20;81.30
59067;DHT22;44854;50.838;4.438;2023-02-28T14:10:01;7.30;81.30
59067;DHT22;44854;50.838;4.438;2023-02-28T14:18:03;7.10;81.70
59067;DHT22;44854;50.838;4.438;2023-02-28T14:20:31;7.20;81.10
59067;DHT22;44854;50.838;4.438;2023-02-28T14:23:10;7.20;80.80
59067;DHT22;44854;50.838;4.438;2023-02-28T14:31:07;6.80;82.40
59067;DHT22;44854;50.838;4.438;2023-02-28T14:36:18;6.80;82.40
59067;DHT22;44854;50.838;4.438;2023-02-28T14:38:46;6.70;82.50
59067;DHT22;44854;50.838;4.438;2023-02-28T14:41:18;6.60;82.40
59067;DHT22;44854;50.838;4.438;2023-02-28T14:44:19;6.90;82.80
59067;DHT22;44854;50.838;4.438;2023-02-28T14:46:37;7.10;82.30
59067;DHT22;44854;50.838;4.438;2023-02-28T14:49:05;7.30;81.60
59067;DHT22;44854;50.838;4.438;2023-02-28T14:51:32;7.60;81.40
59067;DHT22;44854;50.838;4.438;2023-02-28T14:53:59;7.70;81.40
59067;DHT22;44854;50.838;4.438;2023-02-28T14:56:38;7.80;81.00
59067;DHT22;44854;50.838;4.438;2023-02-28T14:59:04;7.70;79.90
59067;DHT22;44854;50.838;4.438;2023-02-28T15:01:30;7.50;83.80
59067;DHT22;44854;50.838;4.438;2023-02-28T15:04:00;7.40;83.70
59067;DHT22;44854;50.838;4.438;2023-02-28T15:06:26;7.30;82.70
59067;DHT22;44854;50.838;4.438;2023-02-28T15:11:36;7.40;82.50
59067;DHT22;44854;50.838;4.438;2023-02-28T15:14:02;7.40;82.20
59067;DHT22;44854;50.838;4.438;2023-02-28T15:16:31;7.30;82.50
59067;DHT22;44854;50.838;4.438;2023-02-28T15:19:02;7.10;82.80
59067;DHT22;44854;50.838;4.438;2023-02-28T15:21:32;7.20;82.80
59067;DHT22;44854;50.838;4.438;2023-02-28T15:26:27;6.90;83.60
59067;DHT22;44854;50.838;4.438;2023-02-28T15:28:58;6.90;83.90
59067;DHT22;44854;50.838;4.438;2023-02-28T15:31:28;6.80;84.10
59067;DHT22;44854;50.838;4.438;2023-02-28T15:33:55;6.60;85.10
59067;DHT22;44854;50.838;4.438;2023-02-28T15:36:21;6.60;85.90
59067;DHT22;44854;50.838;4.438;2023-02-28T15:38:51;6.80;85.10
59067;DHT22;44854;50.838;4.438;2023-02-28T15:41:27;6.90;84.60
59067;DHT22;44854;50.838;4.438;2023-02-28T15:46:37;6.80;85.70
59067;DHT22;44854;50.838;4.438;2023-02-28T15:49:03;6.80;85.10
59067;DHT22;44854;50.838;4.438;2023-02-28T15:51:36;6.80;85.80
59067;DHT22;44854;50.838;4.438;2023-02-28T15:54:06;6.60;85.50
59067;DHT22;44854;50.838;4.438;2023-02-28T15:56:33;6.60;86.20
59067;DHT22;44854;50.838;4.438;2023-02-28T15:59:01;6.50;86.20
59067;DHT22;44854;50.838;4.438;2023-02-28T16:01:28;6.50;85.70
59067;DHT22;44854;50.838;4.438;2023-02-28T16:04:04;6.40;87.10
59067;DHT22;44854;50.838;4.438;2023-02-28T16:06:40;6.50;86.70
59067;DHT22;44854;50.838;4.438;2023-02-28T16:09:14;6.50;87.30
59067;DHT22;44854;50.838;4.438;2023-02-28T16:11:42;6.40;86.40
59067;DHT22;44854;50.838;4.438;2023-02-28T16:14:11;6.40;87.40
59067;DHT22;44854;50.838;4.438;2023-02-28T16:16:41;6.40;86.90
59067;DHT22;44854;50.838;4.438;2023-02-28T16:19:07;6.40;87.20
59067;DHT22;44854;50.838;4.438;2023-02-28T16:21:33;6.50;88.10
59067;DHT22;44854;50.838;4.438;2023-02-28T16:23:59;6.30;87.10
59067;DHT22;44854;50.838;4.438;2023-02-28T16:26:24;6.30;87.90
59067;DHT22;44854;50.838;4.438;2023-02-28T16:28:51;6.30;88.80
59067;DHT22;44854;50.838;4.438;2023-02-28T16:31:17;6.20;88.50
59067;DHT22;44854;50.838;4.438;2023-02-28T16:33:43;6.10;88.60
59067;DHT22;44854;50.838;4.438;2023-02-28T16:36:13;6.10;89.10
59067;DHT22;44854;50.838;4.438;2023-02-28T16:38:38;6.10;88.70
59067;DHT22;44854;50.838;4.438;2023-02-28T16:41:04;6.10;89.30
59067;DHT22;44854;50.838;4.438;2023-02-28T16:43:30;6.10;89.60
59067;DHT22;44854;50.838;4.438;2023-02-28T16:45:56;6.10;89.40
59067;DHT22;44854;50.838;4.438;2023-02-28T16:48:23;6.20;90.00
59067;DHT22;44854;50.838;4.438;2023-02-28T16:50:49;6.30;89.40
59067;DHT22;44854;50.838;4.438;2023-02-28T16:53:14;6.20;89.40
59067;DHT22;44854;50.838;4.438;2023-02-28T16:55:40;6.20;89.90
59067;DHT22;44854;50.838;4.438;2023-02-28T16:58:05;6.10;89.80
59067;DHT22;44854;50.838;4.438;2023-02-28T17:00:31;6.10;90.10
59067;DHT22;44854;50.838;4.438;2023-02-28T17:02:57;6.10;90.30
59067;DHT22;44854;50.838;4.438;2023-02-28T17:05:24;6.20;90.50
59067;DHT22;44854;50.838;4.438;2023-02-28T17:07:51;6.20;90.40
59067;DHT22;44854;50.838;4.438;2023-02-28T17:10:21;6.10;90.10
59067;DHT22;44854;50.838;4.438;2023-02-28T17:12:46;6.00;90.50
59067;DHT22;44854;50.838;4.438;2023-02-28T17:15:13;5.90;90.60
59067;DHT22;44854;50.838;4.438;2023-02-28T17:17:39;5.90;90.60
59067;DHT22;44854;50.838;4.438;2023-02-28T17:20:05;5.70;90.80
59067;DHT22;44854;50.838;4.438;2023-02-28T17:22:31;5.80;90.90
59067;DHT22;44854;50.838;4.438;2023-02-28T17:24:56;5.70;90.60
59067;DHT22;44854;50.838;4.438;2023-02-28T17:27:24;5.60;91.00
59067;DHT22;44854;50.838;4.438;2023-02-28T17:29:50;5.70;90.90
59067;DHT22;44854;50.838;4.438;2023-02-28T17:32:15;5.80;90.90
59067;DHT22;44854;50.838;4.438;2023-02-28T17:34:41;5.70;90.70
59067;DHT22;44854;50.838;4.438;2023-02-28T17:37:07;5.50;91.20
59067;DHT22;44854;50.838;4.438;2023-02-28T17:39:33;5.50;91.40
59067;DHT22;44854;50.838;4.438;2023-02-28T17:41:58;5.50;91.40
59067;DHT22;44854;50.838;4.438;2023-02-28T17:44:24;5.60;91.60
59067;DHT22;44854;50.838;4.438;2023-02-28T17:46:50;5.70;91.50
59067;DHT22;44854;50.838;4.438;2023-02-28T17:49:16;5.70;91.60
59067;DHT22;44854;50.838;4.438;2023-02-28T17:51:42;5.50;92.30
59067;DHT22;44854;50.838;4.438;2023-02-28T17:54:08;5.50;92.40
59067;DHT22;44854;50.838;4.438;2023-02-28T17:56:33;5.40;92.10
59067;DHT22;44854;50.838;4.438;2023-02-28T17:58:59;5.30;92.10
59067;DHT22;44854;50.838;4.438;2023-02-28T18:01:24;5.30;92.60
59067;DHT22;44854;50.838;4.438;2023-02-28T18:03:53;5.20;92.70
59067;DHT22;44854;50.838;4.438;2023-02-28T18:06:21;5.20;93.20
59067;DHT22;44854;50.838;4.438;2023-02-28T18:08:47;5.10;93.50
59067;DHT22;44854;50.838;4.438;2023-02-28T18:11:13;5.20;93.00
59067;DHT22;44854;50.838;4.438;2023-02-28T18:13:45;5.10;93.60
59067;DHT22;44854;50.838;4.438;2023-02-28T18:16:11;5.00;92.90
59067;DHT22;44854;50.838;4.438;2023-02-28T18:18:39;5.10;93.00
59067;DHT22;44854;50.838;4.438;2023-02-28T18:21:04;5.00;93.30
59067;DHT22;44854;50.838;4.438;2023-02-28T18:23:31;5.00;93.20
59067;DHT22;44854;50.838;4.438;2023-02-28T18:25:56;4.90;93.40
59067;DHT22;44854;50.838;4.438;2023-02-28T18:28:23;4.90;93.10
59067;DHT22;44854;50.838;4.438;2023-02-28T18:30:48;5.00;93.30
59067;DHT22;44854;50.838;4.438;2023-02-28T18:33:14;5.10;93.60
59067;DHT22;44854;50.838;4.438;2023-02-28T18:35:40;5.00;93.60
59067;DHT22;44854;50.838;4.438;2023-02-28T18:38:12;4.90;93.30
59067;DHT22;44854;50.838;4.438;2023-02-28T18:40:39;4.90;93.70
59067;DHT22;44854;50.838;4.438;2023-02-28T18:43:05;4.90;93.70
59067;DHT22;44854;50.838;4.438;2023-02-28T18:45:31;4.90;94.10
59067;DHT22;44854;50.838;4.438;2023-02-28T18:47:59;4.90;94.60
59067;DHT22;44854;50.838;4.438;2023-02-28T18:50:24;4.80;94.00
59067;DHT22;44854;50.838;4.438;2023-02-28T18:52:50;4.80;94.20
59067;DHT22;44854;50.838;4.438;2023-02-28T18:55:16;4.80;94.50
59067;DHT22;44854;50.838;4.438;2023-02-28T18:57:46;4.70;94.40
59067;DHT22;44854;50.838;4.438;2023-02-28T19:00:12;4.70;94.10
59067;DHT22;44854;50.838;4.438;2023-02-28T19:02:37;4.80;94.40
59067;DHT22;44854;50.838;4.438;2023-02-28T19:05:04;4.80;94.30
59067;DHT22;44854;50.838;4.438;2023-02-28T19:07:30;4.80;94.80
59067;DHT22;44854;50.838;4.438;2023-02-28T19:09:55;4.80;94.70
59067;DHT22;44854;50.838;4.438;2023-02-28T19:12:21;4.70;94.40
59067;DHT22;44854;50.838;4.438;2023-02-28T19:14:46;4.70;94.60
59067;DHT22;44854;50.838;4.438;2023-02-28T19:17:13;4.60;95.30
59067;DHT22;44854;50.838;4.438;2023-02-28T19:19:40;4.60;95.60
59067;DHT22;44854;50.838;4.438;2023-02-28T19:22:06;4.60;95.70
59067;DHT22;44854;50.838;4.438;2023-02-28T19:24:31;4.60;96.10
59067;DHT22;44854;50.838;4.438;2023-02-28T19:26:57;4.40;96.00
59067;DHT22;44854;50.838;4.438;2023-02-28T19:29:22;4.40;96.60
59067;DHT22;44854;50.838;4.438;2023-02-28T19:31:48;4.40;96.40
59067;DHT22;44854;50.838;4.438;2023-02-28T19:34:13;4.50;95.90
59067;DHT22;44854;50.838;4.438;2023-02-28T19:36:39;4.30;96.80
59067;DHT22;44854;50.838;4.438;2023-02-28T19:39:04;4.30;96.80
59067;DHT22;44854;50.838;4.438;2023-02-28T19:41:30;4.20;96.40
59067;DHT22;44854;50.838;4.438;2023-02-28T19:43:56;4.30;96.60
59067;DHT22;44854;50.838;4.438;2023-02-28T19:46:21;4.20;96.80
59067;DHT22;44854;50.838;4.438;2023-02-28T19:48:47;4.20;96.80
59067;DHT22;44854;50.838;4.438;2023-02-28T19:51:13;4.10;97.20
59067;DHT22;44854;50.838;4.438;2023-02-28T19:53:40;4.00;97.20
59067;DHT22;44854;50.838;4.438;2023-02-28T19:56:05;4.00;97.20
59067;DHT22;44854;50.838;4.438;2023-02-28T19:58:32;3.90;97.60
59067;DHT22;44854;50.838;4.438;2023-02-28T20:01:05;3.80;97.70
59067;DHT22;44854;50.838;4.438;2023-02-28T20:03:31;3.70;97.90
59067;DHT22;44854;50.838;4.438;2023-02-28T20:06:00;3.70;98.00
59067;DHT22;44854;50.838;4.438;2023-02-28T20:08:26;3.70;98.20
59067;DHT22;44854;50.838;4.438;2023-02-28T20:10:52;3.70;98.40
59067;DHT22;44854;50.838;4.438;2023-02-28T20:13:18;3.80;98.40
59067;DHT22;44854;50.838;4.438;2023-02-28T20:15:47;3.60;98.60
59067;DHT22;44854;50.838;4.438;2023-02-28T20:18:13;3.60;99.00
59067;DHT22;44854;50.838;4.438;2023-02-28T20:20:39;3.60;99.10
59067;DHT22;44854;50.838;4.438;2023-02-28T20:23:06;3.60;99.00
59067;DHT22;44854;50.838;4.438;2023-02-28T20:25:32;3.60;99.10
59067;DHT22;44854;50.838;4.438;2023-02-28T20:27:57;3.50;99.10
59067;DHT22;44854;50.838;4.438;2023-02-28T20:30:23;3.40;99.50
59067;DHT22;44854;50.838;4.438;2023-02-28T20:32:51;3.40;99.50
59067;DHT22;44854;50.838;4.438;2023-02-28T20:35:17;3.50;99.50
59067;DHT22;44854;50.838;4.438;2023-02-28T20:37:43;3.40;99.60
59067;DHT22;44854;50.838;4.438;2023-02-28T20:40:09;3.30;99.90
59067;DHT22;44854;50.838;4.438;2023-02-28T20:42:34;3.40;99.90
59067;DHT22;44854;50.838;4.438;2023-02-28T20:45:00;3.40;99.90
59067;DHT22;44854;50.838;4.438;2023-02-28T20:47:26;3.40;99.90
59067;DHT22;44854;50.838;4.438;2023-02-28T20:49:51;3.40;99.90
59067;DHT22;44854;50.838;4.438;2023-02-28T20:52:17;3.40;99.90
59067;DHT22;44854;50.838;4.438;2023-02-28T20:54:42;3.40;99.90
59067;DHT22;44854;50.838;4.438;2023-02-28T20:57:08;3.30;99.90
59067;DHT22;44854;50.838;4.438;2023-02-28T20:59:34;3.30;99.90
59067;DHT22;44854;50.838;4.438;2023-02-28T21:02:00;3.30;99.90
59067;DHT22;44854;50.838;4.438;2023-02-28T21:04:25;3.30;99.90
59067;DHT22;44854;50.838;4.438;2023-02-28T21:06:51;3.30;99.90
59067;DHT22;44854;50.838;4.438;2023-02-28T21:09:16;3.30;99.90
59067;DHT22;44854;50.838;4.438;2023-02-28T21:11:42;3.30;99.90
59067;DHT22;44854;50.838;4.438;2023-02-28T21:14:17;3.30;99.90
59067;DHT22;44854;50.838;4.438;2023-02-28T21:16:43;3.20;99.90
59067;DHT22;44854;50.838;4.438;2023-02-28T21:19:09;3.10;99.90
59067;DHT22;44854;50.838;4.438;2023-02-28T21:21:36;3.10;99.90
59067;DHT22;44854;50.838;4.438;2023-02-28T21:24:07;3.10;99.90
59067;DHT22;44854;50.838;4.438;2023-02-28T21:26:33;3.20;99.90
59067;DHT22;44854;50.838;4.438;2023-02-28T21:28:59;3.10;99.90
59067;DHT22;44854;50.838;4.438;2023-02-28T21:31:27;3.00;99.90
59067;DHT22;44854;50.838;4.438;2023-02-28T21:33:53;3.00;99.90
59067;DHT22;44854;50.838;4.438;2023-02-28T21:36:27;2.90;99.90
59067;DHT22;44854;50.838;4.438;2023-02-28T21:39:04;2.80;99.90
59067;DHT22;44854;50.838;4.438;2023-02-28T21:41:32;2.80;99.90
59067;DHT22;44854;50.838;4.438;2023-02-28T21:43:58;2.80;99.90
59067;DHT22;44854;50.838;4.438;2023-02-28T21:46:24;2.90;99.90
59067;DHT22;44854;50.838;4.438;2023-02-28T21:48:50;2.90;99.90
59067;DHT22;44854;50.838;4.438;2023-02-28T21:51:23;3.00;99.90
59067;DHT22;44854;50.838;4.438;2023-02-28T21:53:49;2.90;99.90
59067;DHT22;44854;50.838;4.438;2023-02-28T21:56:16;2.90;99.90
59067;DHT22;44854;50.838;4.438;2023-02-28T21:58:42;2.90;99.90
59067;DHT22;44854;50.838;4.438;2023-02-28T22:01:08;2.80;99.90
59067;DHT22;44854;50.838;4.438;2023-02-28T22:03:34;2.70;99.90
59067;DHT22;44854;50.838;4.438;2023-02-28T22:06:00;2.70;99.90
59067;DHT22;44854;50.838;4.438;2023-02-28T22:08:27;2.80;99.90
59067;DHT22;44854;50.838;4.438;2023-02-28T22:10:52;2.70;99.90
59067;DHT22;44854;50.838;4.438;2023-02-28T22:13:18;2.60;99.90
59067;DHT22;44854;50.838;4.438;2023-02-28T22:15:44;2.70;99.90
59067;DHT22;44854;50.838;4.438;2023-02-28T22:18:09;2.70;99.90
59067;DHT22;44854;50.838;4.438;2023-02-28T22:20:35;2.60;99.90
59067;DHT22;44854;50.838;4.438;2023-02-28T22:23:00;2.60;99.90
59067;DHT22;44854;50.838;4.438;2023-02-28T22:25:27;2.60;99.90
59067;DHT22;44854;50.838;4.438;2023-02-28T22:27:53;2.50;99.90
59067;DHT22;44854;50.838;4.438;2023-02-28T22:30:18;2.40;99.90
59067;DHT22;44854;50.838;4.438;2023-02-28T22:32:44;2.50;99.90
59067;DHT22;44854;50.838;4.438;2023-02-28T22:35:10;2.50;99.90
59067;DHT22;44854;50.838;4.438;2023-02-28T22:37:35;2.40;99.90
59067;DHT22;44854;50.838;4.438;2023-02-28T22:40:01;2.50;99.90
59067;DHT22;44854;50.838;4.438;2023-02-28T22:42:26;2.40;99.90
59067;DHT22;44854;50.838;4.438;2023-02-28T22:44:52;2.50;99.90
59067;DHT22;44854;50.838;4.438;2023-02-28T22:47:18;2.50;99.90
59067;DHT22;44854;50.838;4.438;2023-02-28T22:49:44;2.40;99.90
